Main page
METAR-TAF:

METAR-TAF

Airports :

Bamako–Modibo Keïta International Airport

Bamako, Mali

latitude: 12-32N, longitude: 007-57W, elevation: 380 m

Current weather observation

The report was made 29 minutes ago, at 07:30 UTC
Wind 11 kt from the Northeast
Temperature 18°C
Humidity 15%
Pressure 1019 hPa
Visibility 10 km or more
no clouds below 1500 m and no cumulonimbus

METAR: GABS 200730Z 05011KT CAVOK 18/M09 Q1019 NOSIG

Time: 07:59 (07:59 UTC)

Forecast

The report was made 2 hours and 19 minutes ago, at 05:40 UTC
Forecast valid from 20 at 06 UTC to 21 at 12 UTC
Wind 8 kt from the Northeast
Visibility: 8000 m
Probability 40% :
Temporary
from 20 at 06 UTC to 20 at 11 UTC
Visibility: 4000 m
widespread dust

TAF: GABS 200540Z 2006/2112 04008KT 8000 NSC PROB40 TEMPO 2006/2011 4000 DU

Weather observations and forecasts of more than 4000 airports (METAR and TAF reports).

The available stations are represented by yellow and red dots on the map.

Hover mouse over dot to see the name of the station.

Then click to see weather observations and forecasts.

To change the map : click on the green buttons with a black cross to zoom in, on the green button with a dash to zoom out, or on the green arrows for adjacent maps.


METAR-TAF: